Time;durP1;ratioP1;P1;durP2;ratioP2;P2;SDS_P1;SDS_P2;PMS_P1;PMS_P2;Temp;Humidity;BMP_temperature;BMP_pressure;BME280_temperature;BME280_humidity;BME280_pressure;Samples;Min_cycle;Max_cycle;Signal;HPM_P1;HPM_P2
2022/01/12 00:00:13;;;;;;;123.87;90.07;;;13.80;72.80;;;;;;5169081;28;20092;-29
2022/01/12 00:03:04;;;;;;;121.13;87.77;;;13.80;72.80;;;;;;5141021;28;20061;-30
2022/01/12 00:05:35;;;;;;;124.07;89.87;;;13.80;72.70;;;;;;5168884;28;20065;-31
2022/01/12 00:08:08;;;;;;;123.40;87.80;;;13.80;72.80;;;;;;5167909;28;20050;-29
2022/01/12 00:10:39;;;;;;;120.55;88.50;;;13.80;72.80;;;;;;5168559;28;20081;-30
2022/01/12 00:13:10;;;;;;;133.20;93.37;;;13.70;73.20;;;;;;5167170;28;20129;-34
2022/01/12 00:15:41;;;;;;;125.60;90.13;;;13.70;72.70;;;;;;5169146;28;20488;-29
2022/01/12 00:18:12;;;;;;;124.20;85.60;;;13.70;72.70;;;;;;5168987;28;20074;-32
2022/01/12 00:20:43;;;;;;;127.67;91.43;;;13.70;72.60;;;;;;5168457;28;20049;-29
2022/01/12 00:23:15;;;;;;;132.27;91.90;;;13.70;72.70;;;;;;5168525;28;20050;-31
2022/01/12 00:26:08;;;;;;;129.52;90.28;;;13.80;73.00;;;;;;5168605;28;20443;-31
2022/01/12 00:34:19;;;;;;;140.83;96.07;;;14.00;73.00;;;;;;5168676;28;20049;-29
2022/01/12 00:36:50;;;;;;;149.23;102.57;;;14.00;72.80;;;;;;5166962;28;20065;-29
2022/01/12 00:39:21;;;;;;;148.13;102.10;;;13.90;72.60;;;;;;5167464;28;20427;-30
2022/01/12 00:41:52;;;;;;;162.40;106.67;;;13.90;72.80;;;;;;5168212;28;20043;-30
2022/01/12 00:44:29;;;;;;;138.23;95.27;;;13.90;72.70;;;;;;5166997;28;20050;-30
2022/01/12 00:47:00;;;;;;;139.70;97.10;;;13.90;72.80;;;;;;5168246;28;20488;-30
2022/01/12 00:49:31;;;;;;;140.27;97.60;;;13.90;72.70;;;;;;5168192;28;20049;-29
2022/01/12 00:52:03;;;;;;;139.80;95.73;;;13.90;72.70;;;;;;5167962;28;20113;-30
2022/01/12 00:54:33;;;;;;;117.03;83.53;;;13.80;72.70;;;;;;5168030;28;20046;-30
2022/01/12 00:57:05;;;;;;;119.43;87.37;;;13.80;72.50;;;;;;5167984;28;20066;-30
2022/01/12 00:59:36;;;;;;;126.80;88.47;;;13.80;72.40;;;;;;5167936;28;20069;-31
2022/01/12 01:02:07;;;;;;;121.97;86.67;;;13.80;72.40;;;;;;5167615;28;20137;-30
2022/01/12 01:04:37;;;;;;;123.90;88.23;;;13.80;72.50;;;;;;5166887;28;20185;-31
2022/01/12 01:07:09;;;;;;;116.43;82.47;;;13.70;72.50;;;;;;5167645;28;20051;-31
2022/01/12 01:09:45;;;;;;;123.83;87.63;;;13.70;72.50;;;;;;5167452;28;20050;-30
2022/01/12 01:12:16;;;;;;;119.00;84.37;;;13.70;72.60;;;;;;5166682;28;20540;-30
2022/01/12 01:15:01;;;;;;;114.77;82.27;;;13.70;73.00;;;;;;5167426;28;20141;-30
2022/01/12 01:25:54;;;;;;;115.07;81.47;;;13.60;72.50;;;;;;5167933;28;20102;-30
2022/01/12 01:28:25;;;;;;;;;;;13.60;72.70;;;;;;5167736;28;20045;-30
2022/01/12 01:30:56;;;;;;;;;;;13.50;72.80;;;;;;5167818;28;19926;-30
2022/01/12 01:33:27;;;;;;;;;;;13.50;73.40;;;;;;5167865;28;20393;-29
2022/01/12 01:35:58;;;;;;;;;;;13.50;73.60;;;;;;5167639;28;20013;-30
2022/01/12 01:38:29;;;;;;;;;;;13.50;73.50;;;;;;5168156;28;19926;-30
2022/01/12 01:41:00;;;;;;;;;;;13.50;73.40;;;;;;5167701;28;19929;-30
2022/01/12 01:54:41;;;;;;;;;;;13.40;73.00;;;;;;5113117;29;19926;-30
2022/01/12 01:57:13;;;;;;;;;;;13.50;73.20;;;;;;5125098;29;19969;-30
2022/01/12 01:59:45;;;;;;;;;;;13.40;73.20;;;;;;5141223;28;20474;-30
2022/01/12 02:02:16;;;;;;;;;;;13.40;73.20;;;;;;5125068;29;20010;-30
2022/01/12 02:04:47;;;;;;;;;;;13.40;73.20;;;;;;5125101;29;20388;-30
2022/01/12 02:07:19;;;;;;;;;;;13.40;73.10;;;;;;5125072;29;19926;-30
2022/01/12 02:09:56;;;;;;;;;;;13.40;73.30;;;;;;5124923;29;20054;-30
2022/01/12 02:12:32;;;;;;;;;;;13.40;73.20;;;;;;5124933;29;20025;-30
2022/01/12 02:15:17;;;;;;;;;;;13.40;73.20;;;;;;5124528;28;19926;-31
2022/01/12 02:35:13;;;;;;;;;;;13.40;73.30;;;;;;5124850;29;20384;-31
2022/01/12 02:40:34;;;;;;;;;;;13.30;73.30;;;;;;5167074;28;19926;-30
2022/01/12 02:53:38;;;;;;;;;;;13.20;73.00;;;;;;5165635;28;19933;-30
2022/01/12 02:54:24;;;;;;;;;;;13.20;73.00;;;;;;5166747;28;20395;-29
2022/01/12 02:56:54;;;;;;;;;;;13.20;73.00;;;;;;5166814;28;19972;-29
2022/01/12 02:59:25;;;;;;;;;;;13.10;73.00;;;;;;5166799;28;19926;-29
2022/01/12 03:02:22;;;;;;;;;;;13.10;73.30;;;;;;5166564;28;19925;-30
2022/01/12 03:05:18;;;;;;;;;;;13.10;73.30;;;;;;5166866;28;19926;-30
2022/01/12 03:07:47;;;;;;;;;;;13.20;73.20;;;;;;5166799;28;19933;-31
2022/01/12 03:10:18;;;;;;;;;;;13.20;72.90;;;;;;5167172;28;20382;-30
2022/01/12 03:12:49;;;;;;;;;;;13.20;72.70;;;;;;5166909;28;20032;-30
2022/01/12 03:15:20;;;;;;;;;;;13.20;72.40;;;;;;5166851;28;20315;-31
2022/01/12 03:17:51;;;;;;;;;;;13.10;72.30;;;;;;5166757;28;19933;-30
2022/01/12 03:20:22;;;;;;;;;;;13.10;72.20;;;;;;5166565;28;20371;-30
2022/01/12 03:22:52;;;;;;;;;;;13.10;72.00;;;;;;5166591;28;19961;-30
2022/01/12 03:25:23;;;;;;;;;;;13.10;71.90;;;;;;5166580;28;19933;-29
2022/01/12 03:27:58;;;;;;;;;;;13.10;71.90;;;;;;5167816;28;19953;-30
2022/01/12 03:30:36;;;;;;;;;;;13.10;71.90;;;;;;5169248;28;20024;-30
2022/01/12 03:33:18;;;;;;;;;;;13.10;71.80;;;;;;5170253;28;20257;-31
2022/01/12 04:10:01;;;;;;;;;;;13.10;71.50;;;;;;5169891;28;20383;-31
2022/01/12 04:12:32;;;;;;;;;;;13.00;71.50;;;;;;5169338;28;19981;-31
2022/01/12 04:15:03;;;;;;;;;;;13.00;71.30;;;;;;5169238;28;20364;-31
2022/01/12 04:17:35;;;;;;;;;;;13.00;71.30;;;;;;5167966;28;19932;-30
2022/01/12 04:20:06;;;;;;;;;;;13.00;71.30;;;;;;5168157;28;19930;-30
2022/01/12 04:25:27;;;;;;;;;;;13.00;71.20;;;;;;5168905;28;19972;-31
2022/01/12 04:27:58;;;;;;;;;;;13.00;71.30;;;;;;5169164;28;19953;-31
2022/01/12 04:30:29;;;;;;;;;;;13.00;71.30;;;;;;5169274;28;20396;-30
2022/01/12 04:33:00;;;;;;;;;;;13.00;71.30;;;;;;5167717;28;20398;-30
2022/01/12 04:35:35;;;;;;;;;;;13.00;71.40;;;;;;5168806;28;20402;-31
2022/01/12 04:38:08;;;;;;;;;;;13.00;71.30;;;;;;5167601;28;19926;-29
2022/01/12 04:40:39;;;;;;;;;;;13.00;71.30;;;;;;5168876;28;19932;-29
2022/01/12 04:43:10;;;;;;;;;;;13.00;71.20;;;;;;5168812;28;19980;-30
2022/01/12 04:45:58;;;;;;;;;;;13.00;71.00;;;;;;5168737;28;20342;-30
2022/01/12 04:50:59;;;;;;;;;;;12.90;71.20;;;;;;5168699;28;19930;-30
2022/01/12 04:53:31;;;;;;;;;;;12.90;71.60;;;;;;5167460;28;19972;-30
2022/01/12 04:56:01;;;;;;;;;;;12.90;72.00;;;;;;5168431;28;20041;-30
2022/01/12 04:58:33;;;;;;;;;;;12.90;72.10;;;;;;5168403;28;19926;-30
2022/01/12 05:01:13;;;;;;;;;;;13.00;71.80;;;;;;5167790;28;20290;-30
2022/01/12 05:06:55;;;;;;;;;;;12.90;71.40;;;;;;5168070;28;19968;-30
2022/01/12 05:09:48;;;;;;;;;;;12.90;71.40;;;;;;5167998;28;20359;-29
2022/01/12 05:15:15;;;;;;;;;;;12.90;71.30;;;;;;5180147;28;20295;-29
2022/01/12 05:17:46;;;;;;;;;;;13.00;71.10;;;;;;5166925;28;19960;-31
2022/01/12 05:20:17;;;;;;;;;;;13.10;71.10;;;;;;5166910;28;19933;-30
2022/01/12 05:22:48;;;;;;;;;;;13.20;70.90;;;;;;5167808;28;19926;-30
2022/01/12 05:25:19;;;;;;;;;;;13.20;70.90;;;;;;5167083;28;19980;-29
2022/01/12 05:27:50;;;;;;;;;;;13.20;70.90;;;;;;5168116;28;19966;-30
2022/01/12 05:30:21;;;;;;;;;;;13.30;71.20;;;;;;5167089;28;19952;-31
2022/01/12 05:32:52;;;;;;;;;;;13.40;71.10;;;;;;5167525;28;19926;-30
2022/01/12 05:35:24;;;;;;;;;;;13.40;71.20;;;;;;5167701;28;20286;-29
2022/01/12 05:37:55;;;;;;;;;;;13.50;71.30;;;;;;5167777;28;19957;-30
2022/01/12 05:40:26;;;;;;;;;;;13.50;71.30;;;;;;5183115;28;19930;-29
2022/01/12 05:43:00;;;;;;;103.65;71.75;;;13.50;71.30;;;;;;5167287;28;20360;-30
2022/01/12 05:45:34;;;;;;;109.83;75.70;;;13.60;71.40;;;;;;5166561;28;20046;-29
2022/01/12 05:50:39;;;;;;;;;;;13.80;71.30;;;;;;5166872;28;19928;-29
2022/01/12 05:53:10;;;;;;;;;;;13.90;71.30;;;;;;5182638;28;20012;-31
2022/01/12 05:55:41;;;;;;;;;;;13.90;71.10;;;;;;5167501;28;20323;-30
2022/01/12 05:58:12;;;;;;;;;;;13.90;71.00;;;;;;5160082;28;20014;-30
2022/01/12 06:00:43;;;;;;;;;;;13.90;71.00;;;;;;5157737;28;20009;-29
2022/01/12 06:03:14;;;;;;;;;;;13.90;71.10;;;;;;5162321;28;19921;-30
2022/01/12 06:05:45;;;;;;;;;;;13.90;71.30;;;;;;5153822;28;19933;-29
2022/01/12 06:08:16;;;;;;;;;;;13.90;71.40;;;;;;5152611;28;19925;-30
2022/01/12 06:10:47;;;;;;;;;;;13.90;71.40;;;;;;5155639;28;19952;-31
2022/01/12 06:13:17;;;;;;;;;;;13.80;71.40;;;;;;5146447;28;19922;-30
2022/01/12 06:15:48;;;;;;;;;;;13.80;71.70;;;;;;5159841;28;19958;-31
2022/01/12 06:18:19;;;;;;;;;;;13.80;71.70;;;;;;5160191;28;19988;-30
2022/01/12 06:20:50;;;;;;;;;;;13.70;71.70;;;;;;5151121;28;19925;-29
2022/01/12 06:26:01;;;;;;;;;;;13.80;71.80;;;;;;5063017;26;19925;-30
2022/01/12 06:31:10;;;;;;;;;;;13.70;72.00;;;;;;5193116;28;19952;-29
2022/01/12 06:36:53;;;;;;;;;;;13.70;71.90;;;;;;5189829;28;19932;-30
2022/01/12 06:39:26;;;;;;;;;;;13.60;71.90;;;;;;5188369;28;20382;-30
2022/01/12 06:41:57;;;;;;;;;;;13.60;72.10;;;;;;5191000;28;19921;-29
2022/01/12 06:44:28;;;;;;;;;;;13.60;72.20;;;;;;5189909;28;20019;-30
2022/01/12 06:47:02;;;;;;;;;;;13.50;72.10;;;;;;5189254;28;20015;-30
2022/01/12 06:49:33;;;;;;;;;;;13.50;72.30;;;;;;5188897;28;19987;-31
2022/01/12 06:52:05;;;;;;;;;;;13.50;72.40;;;;;;5184777;28;19929;-29
2022/01/12 06:54:36;;;;;;;;;;;13.50;72.40;;;;;;5188647;28;19938;-30
2022/01/12 06:57:07;;;;;;;;;;;13.50;72.50;;;;;;5190980;28;20038;-30
2022/01/12 06:59:38;;;;;;;;;;;13.40;72.60;;;;;;5190978;28;19944;-30
2022/01/12 07:02:09;;;;;;;;;;;13.40;72.60;;;;;;5188094;28;19921;-29
2022/01/12 07:04:40;;;;;;;;;;;13.40;72.70;;;;;;5193692;28;19921;-29
2022/01/12 07:07:11;;;;;;;;;;;13.40;72.80;;;;;;5192090;28;19927;-31
2022/01/12 07:09:42;;;;;;;;;;;13.40;72.90;;;;;;5189769;28;20376;-29
2022/01/12 07:12:14;;;;;;;107.50;71.87;;;12.00;74.30;;;;;;5190200;28;19972;-29
2022/01/12 07:14:45;;;;;;;117.15;75.60;;;10.40;78.30;;;;;;5189308;28;20042;-28
2022/01/12 07:17:16;;;;;;;;;;;9.50;80.50;;;;;;5191032;28;20161;-28
2022/01/12 07:19:48;;;;;;;133.80;87.17;;;9.10;81.80;;;;;;5189980;28;19972;-31
2022/01/12 07:22:18;;;;;;;;;;;8.80;82.40;;;;;;5190642;28;20487;-29
2022/01/12 07:24:49;;;;;;;;;;;8.60;83.10;;;;;;5189837;28;19932;-28
2022/01/12 07:27:20;;;;;;;;;;;8.40;84.10;;;;;;5156086;28;19922;-29
2022/01/12 07:29:51;;;;;;;;;;;8.30;84.50;;;;;;5190540;28;19922;-30
2022/01/12 07:32:22;;;;;;;;;;;8.20;84.30;;;;;;5190357;28;19969;-28
2022/01/12 07:34:53;;;;;;;;;;;8.10;84.70;;;;;;5190296;28;19921;-28
2022/01/12 07:37:24;;;;;;;;;;;8.00;85.20;;;;;;5190204;28;20371;-31
2022/01/12 07:39:55;;;;;;;128.60;77.50;;;8.00;85.60;;;;;;5189373;28;19948;-31
2022/01/12 07:42:26;;;;;;;119.40;72.93;;;8.60;85.10;;;;;;5190091;28;20124;-28
2022/01/12 07:45:00;;;;;;;115.40;75.13;;;9.20;83.90;;;;;;5189552;28;20145;-29
2022/01/12 07:47:33;;;;;;;115.65;72.70;;;9.70;82.20;;;;;;5189477;28;20042;-31
2022/01/12 07:50:05;;;;;;;112.77;76.27;;;10.20;81.10;;;;;;5189420;28;20084;-29
2022/01/12 07:52:37;;;;;;;110.67;74.20;;;10.60;80.00;;;;;;5188010;28;20077;-29
2022/01/12 07:55:08;;;;;;;109.57;73.00;;;10.90;79.10;;;;;;5189589;28;20122;-30
2022/01/12 07:57:42;;;;;;;108.93;73.97;;;11.10;78.30;;;;;;5189393;28;20392;-29
2022/01/12 08:00:13;;;;;;;104.17;72.80;;;11.40;77.90;;;;;;5189551;28;20042;-31
2022/01/12 08:02:44;;;;;;;100.90;70.90;;;11.50;77.40;;;;;;5188189;28;20491;-30
2022/01/12 08:05:16;;;;;;;101.57;67.67;;;11.70;76.90;;;;;;5189368;28;20038;-29
2022/01/12 08:07:48;;;;;;;96.47;67.03;;;11.80;76.50;;;;;;5189149;28;20042;-30
2022/01/12 08:13:09;;;;;;;97.70;66.10;;;12.10;76.00;;;;;;5189019;28;20120;-31
2022/01/12 08:15:40;;;;;;;90.50;61.60;;;12.20;75.60;;;;;;5188371;28;20110;-29
2022/01/12 08:18:11;;;;;;;101.07;69.17;;;12.30;75.50;;;;;;5189247;28;20121;-29
2022/01/12 08:20:43;;;;;;;96.63;67.23;;;12.40;75.30;;;;;;5189439;28;20041;-29
2022/01/12 08:23:13;;;;;;;111.97;73.90;;;12.40;75.00;;;;;;5188709;28;20510;-31
2022/01/12 08:25:46;;;;;;;102.60;71.40;;;12.40;74.70;;;;;;5188508;28;20050;-31
2022/01/12 08:28:16;;;;;;;127.80;84.50;;;12.50;74.50;;;;;;5187278;28;20053;-29
2022/01/12 08:30:48;;;;;;;119.03;84.07;;;12.50;74.50;;;;;;5187493;28;20038;-29
2022/01/12 08:33:18;;;;;;;119.13;81.60;;;12.50;74.30;;;;;;5188787;28;20067;-28
2022/01/12 08:35:50;;;;;;;118.10;82.20;;;12.60;74.30;;;;;;5188340;28;20053;-29
2022/01/12 08:38:20;;;;;;;117.57;83.20;;;12.50;74.00;;;;;;5189023;28;20052;-30
2022/01/12 08:40:52;;;;;;;114.33;83.43;;;12.60;74.20;;;;;;5188784;28;20479;-31
2022/01/12 08:43:23;;;;;;;112.83;81.47;;;12.60;73.90;;;;;;5188449;28;20076;-31
2022/01/12 08:45:54;;;;;;;115.27;83.93;;;12.70;74.20;;;;;;5188592;28;20050;-29
2022/01/12 08:48:25;;;;;;;114.10;83.77;;;12.70;74.20;;;;;;5186993;28;20046;-31
2022/01/12 08:50:56;;;;;;;119.70;86.40;;;12.70;74.00;;;;;;5154750;28;20458;-30
2022/01/12 08:53:27;;;;;;;116.27;85.57;;;12.70;73.90;;;;;;5188235;28;20117;-29
2022/01/12 08:56:16;;;;;;;110.60;80.23;;;12.70;73.80;;;;;;5188182;28;20088;-31
2022/01/12 08:58:48;;;;;;;128.50;89.87;;;12.70;73.70;;;;;;5188281;28;20053;-29
2022/01/12 09:01:20;;;;;;;115.15;85.25;;;12.70;73.70;;;;;;5188402;28;20050;-29
2022/01/12 09:03:51;;;;;;;129.90;90.23;;;12.70;73.50;;;;;;5187184;28;20105;-28
2022/01/12 09:06:22;;;;;;;131.30;92.00;;;12.70;73.40;;;;;;5188245;28;20041;-29
2022/01/12 09:08:53;;;;;;;123.67;90.30;;;12.70;73.40;;;;;;5187998;28;20094;-30
2022/01/12 09:11:25;;;;;;;136.73;99.30;;;12.70;73.20;;;;;;5187110;28;20058;-29
2022/01/12 09:13:56;;;;;;;126.83;94.60;;;12.70;73.20;;;;;;5188041;28;20387;-31
2022/01/12 09:16:27;;;;;;;124.77;90.17;;;12.70;72.90;;;;;;5188065;28;20502;-31
2022/01/12 09:18:58;;;;;;;126.03;93.10;;;12.70;72.90;;;;;;5187833;28;20071;-29
2022/01/12 09:21:29;;;;;;;131.30;97.63;;;12.70;73.10;;;;;;5187831;28;20100;-29
2022/01/12 09:24:00;;;;;;;126.63;91.43;;;12.70;72.80;;;;;;5186188;28;20368;-31
2022/01/12 09:26:31;;;;;;;129.33;96.33;;;12.70;73.00;;;;;;5187627;28;20168;-29
2022/01/12 09:29:02;;;;;;;131.03;94.37;;;12.60;73.10;;;;;;5187958;28;20108;-31
2022/01/12 09:31:33;;;;;;;126.17;93.40;;;12.70;73.30;;;;;;5186344;28;20125;-31
2022/01/12 09:34:04;;;;;;;136.17;107.90;;;12.70;73.60;;;;;;5187399;28;20053;-30
2022/01/12 09:36:35;;;;;;;125.90;97.00;;;12.70;73.70;;;;;;5187416;28;20034;-31
2022/01/12 09:39:08;;;;;;;123.97;93.37;;;12.70;73.80;;;;;;5187441;28;20052;-29
2022/01/12 09:41:39;;;;;;;122.22;91.55;;;12.70;74.00;;;;;;5186376;28;20454;-30
2022/01/12 09:44:10;;;;;;;128.23;95.03;;;12.70;73.80;;;;;;5187334;28;20049;-29
2022/01/12 09:46:41;;;;;;;120.17;91.93;;;12.60;73.70;;;;;;5186849;28;20392;-31
2022/01/12 09:49:12;;;;;;;124.30;90.33;;;12.70;73.70;;;;;;5186235;28;20511;-29
2022/01/12 09:51:43;;;;;;;121.00;90.50;;;12.70;73.80;;;;;;5187263;28;20489;-30
2022/01/12 09:54:15;;;;;;;116.63;86.20;;;12.70;73.70;;;;;;5187000;28;20045;-29
2022/01/12 09:56:46;;;;;;;116.43;88.93;;;12.70;73.50;;;;;;5169598;28;20057;-31
2022/01/12 09:59:17;;;;;;;119.20;87.90;;;12.80;73.80;;;;;;5186828;28;20050;-31
2022/01/12 10:01:49;;;;;;;126.77;94.23;;;12.80;73.70;;;;;;5186641;28;20052;-31
2022/01/12 10:04:27;;;;;;;129.30;91.67;;;12.90;73.60;;;;;;5187015;28;20046;-29
2022/01/12 10:06:59;;;;;;;116.73;84.13;;;13.00;74.00;;;;;;5186983;28;20038;-28
2022/01/12 10:09:39;;;;;;;118.00;86.53;;;13.00;73.70;;;;;;5185690;28;20050;-29
2022/01/12 10:12:21;;;;;;;108.90;81.27;;;13.00;73.90;;;;;;5186250;28;20411;-31
2022/01/12 10:14:55;;;;;;;118.10;82.87;;;13.00;73.80;;;;;;5185751;28;20107;-28
2022/01/12 10:17:45;;;;;;;119.50;82.60;;;13.00;73.70;;;;;;5185737;28;20120;-30
2022/01/12 10:20:43;;;;;;;147.50;90.63;;;13.00;73.70;;;;;;5185667;28;20114;-31
2022/01/12 10:23:15;;;;;;;132.17;91.93;;;13.00;73.80;;;;;;5187050;28;20052;-28
2022/01/12 10:25:47;;;;;;;130.77;94.70;;;13.00;73.50;;;;;;5185390;28;20381;-29
2022/01/12 10:28:20;;;;;;;111.23;80.33;;;13.00;73.20;;;;;;5187099;28;20137;-31
2022/01/12 10:30:58;;;;;;;106.47;81.72;;;13.00;73.30;;;;;;5186488;28;20053;-30
2022/01/12 10:33:33;;;;;;;105.70;80.70;;;13.00;73.30;;;;;;5186706;28;20089;-29
2022/01/12 10:36:07;;;;;;;113.93;83.63;;;13.00;73.40;;;;;;5186464;28;20046;-31
2022/01/12 10:38:39;;;;;;;113.00;82.60;;;13.00;73.40;;;;;;5189972;28;20467;-29
2022/01/12 10:41:09;;;;;;;117.10;87.23;;;12.90;73.00;;;;;;5190799;28;20099;-28
2022/01/12 10:43:44;;;;;;;110.07;80.03;;;12.90;73.30;;;;;;5189597;28;20046;-31
2022/01/12 10:46:17;;;;;;;104.17;78.67;;;12.90;73.40;;;;;;5190537;28;20048;-29
2022/01/12 10:48:53;;;;;;;101.00;74.57;;;12.90;73.20;;;;;;5190644;28;20053;-30
2022/01/12 10:51:28;;;;;;;110.77;80.40;;;12.90;73.40;;;;;;5189286;28;20046;-29
2022/01/12 10:54:03;;;;;;;107.23;79.20;;;12.90;73.20;;;;;;5189889;28;20050;-31
2022/01/12 10:56:34;;;;;;;103.93;77.23;;;12.90;73.30;;;;;;5190888;28;20068;-29
2022/01/12 10:59:17;;;;;;;108.33;80.23;;;12.90;73.50;;;;;;5190157;28;20076;-30
2022/01/12 11:01:48;;;;;;;113.70;83.13;;;12.90;73.60;;;;;;5190284;28;20450;-30
2022/01/12 11:04:20;;;;;;;110.60;80.17;;;13.00;73.60;;;;;;5189794;28;20053;-29
2022/01/12 11:06:51;;;;;;;109.03;78.47;;;13.00;73.70;;;;;;5189235;28;20047;-28
2022/01/12 11:09:24;;;;;;;100.93;74.28;;;13.00;73.60;;;;;;5189617;28;20487;-29
2022/01/12 11:11:54;;;;;;;99.40;73.40;;;13.00;73.70;;;;;;5173366;28;20045;-29
2022/01/12 11:14:26;;;;;;;101.57;73.77;;;13.00;73.80;;;;;;5172735;28;20081;-29
2022/01/12 11:16:56;;;;;;;100.90;73.23;;;13.00;73.20;;;;;;5172584;28;20049;-29
2022/01/12 11:19:28;;;;;;;99.93;72.53;;;13.00;73.00;;;;;;5189007;28;20073;-29
2022/01/12 11:22:27;;;;;;;91.47;69.20;;;13.00;72.80;;;;;;5172706;28;20061;-28
2022/01/12 11:24:58;;;;;;;86.00;61.87;;;13.00;72.50;;;;;;5188914;28;20119;-31
2022/01/12 11:27:29;;;;;;;83.27;61.60;;;13.00;72.50;;;;;;5188895;28;20487;-28
2022/01/12 11:30:00;;;;;;;85.40;62.60;;;13.00;72.10;;;;;;5190207;28;20053;-30
2022/01/12 11:32:31;;;;;;;91.77;64.73;;;13.00;72.30;;;;;;5189860;28;20107;-30
2022/01/12 11:35:03;;;;;;;85.77;63.83;;;13.00;71.80;;;;;;5189834;28;20052;-30
2022/01/12 11:37:34;;;;;;;91.67;67.23;;;13.00;72.10;;;;;;5189859;28;20116;-29
2022/01/12 11:40:08;;;;;;;87.47;64.33;;;13.00;71.70;;;;;;5188588;28;20468;-30
2022/01/12 11:42:39;;;;;;;85.83;61.67;;;13.00;72.00;;;;;;5190260;28;20061;-30
2022/01/12 11:45:19;;;;;;;87.35;64.30;;;13.00;72.00;;;;;;5189353;28;20054;-30
2022/01/12 11:47:51;;;;;;;84.83;62.10;;;13.00;72.00;;;;;;5188908;28;20400;-29
2022/01/12 11:50:23;;;;;;;83.55;61.50;;;13.00;72.10;;;;;;5171489;28;20537;-29
2022/01/12 11:52:54;;;;;;;76.63;55.90;;;13.00;71.90;;;;;;5189297;28;20057;-29
2022/01/12 11:55:30;;;;;;;79.67;55.57;;;13.00;72.00;;;;;;5189488;28;20040;-28
2022/01/12 11:58:03;;;;;;;83.17;58.10;;;12.90;71.80;;;;;;5172482;28;20129;-29
2022/01/12 12:00:36;;;;;;;;;;;12.90;72.00;;;;;;5188592;28;20085;-31
2022/01/12 12:03:13;;;;;;;85.53;56.13;;;12.90;72.00;;;;;;5189308;28;19921;-29
2022/01/12 12:05:45;;;;;;;79.27;55.63;;;12.80;71.90;;;;;;5188137;28;20054;-30
2022/01/12 12:08:23;;;;;;;76.33;54.63;;;12.80;72.00;;;;;;5189297;28;20042;-30
2022/01/12 12:10:54;;;;;;;71.10;51.43;;;12.80;71.90;;;;;;5188412;28;20046;-29
2022/01/12 12:13:25;;;;;;;74.03;51.63;;;12.80;72.10;;;;;;5189103;28;20064;-30
2022/01/12 12:15:56;;;;;;;75.50;52.07;;;12.80;71.80;;;;;;5189190;28;20037;-29
2022/01/12 12:18:27;;;;;;;76.23;51.67;;;12.70;71.70;;;;;;5188175;28;20045;-30
2022/01/12 12:20:58;;;;;;;73.00;51.23;;;12.80;71.60;;;;;;5187536;28;20049;-29
2022/01/12 12:23:31;;;;;;;78.60;52.90;;;12.70;71.40;;;;;;5189177;28;20045;-31
2022/01/12 12:26:06;;;;;;;;;;;12.80;71.20;;;;;;5189193;28;20490;-30
2022/01/12 12:28:37;;;;;;;77.77;51.30;;;12.80;71.40;;;;;;5188036;28;19921;-29
2022/01/12 12:31:08;;;;;;;81.67;55.93;;;12.80;71.60;;;;;;5188502;28;20095;-30
2022/01/12 12:33:39;;;;;;;78.60;53.80;;;12.80;71.20;;;;;;5188903;28;20487;-31
2022/01/12 12:36:12;;;;;;;71.07;50.43;;;12.80;71.10;;;;;;5188690;28;20419;-29
2022/01/12 12:38:43;;;;;;;67.03;47.17;;;12.80;71.20;;;;;;5187565;28;20046;-31
2022/01/12 12:41:14;;;;;;;69.33;47.30;;;12.80;71.20;;;;;;5188638;28;20049;-31
2022/01/12 12:43:45;;;;;;;68.70;47.33;;;12.80;71.10;;;;;;5149816;28;20456;-29
2022/01/12 12:46:17;;;;;;;68.87;49.67;;;12.80;70.90;;;;;;5165945;28;20057;-28
2022/01/12 12:48:47;;;;;;;72.13;51.40;;;12.80;70.60;;;;;;5165816;28;20046;-30
2022/01/12 12:51:19;;;;;;;69.17;47.77;;;12.80;70.30;;;;;;5165871;28;20054;-31
2022/01/12 12:53:54;;;;;;;67.83;47.43;;;12.80;70.60;;;;;;5165916;28;20070;-29
2022/01/12 12:56:28;;;;;;;69.73;47.33;;;12.80;70.80;;;;;;5165978;28;20046;-30
2022/01/12 12:58:59;;;;;;;68.57;47.47;;;12.80;70.60;;;;;;5165849;28;20058;-31
2022/01/12 13:01:31;;;;;;;67.93;49.23;;;12.90;70.80;;;;;;5164641;28;20057;-29
2022/01/12 13:04:02;;;;;;;73.93;49.10;;;12.80;70.60;;;;;;5149537;28;20145;-30
2022/01/12 13:06:35;;;;;;;68.70;48.63;;;12.80;70.40;;;;;;5149799;28;20571;-29
2022/01/12 13:09:08;;;;;;;64.93;44.47;;;12.80;70.60;;;;;;5149370;28;20559;-31
2022/01/12 13:11:40;;;;;;;68.72;47.13;;;12.80;70.60;;;;;;5149865;28;20042;-29
2022/01/12 13:14:13;;;;;;;68.30;46.50;;;12.80;70.60;;;;;;5158145;28;20415;-30
2022/01/12 13:16:44;;;;;;;68.80;49.15;;;12.90;70.50;;;;;;5188040;28;20099;-29
2022/01/12 13:19:34;;;;;;;91.50;59.77;;;12.90;70.60;;;;;;5187840;28;20510;-29
2022/01/12 13:22:05;;;;;;;72.33;49.30;;;12.90;70.90;;;;;;5188099;28;20045;-31
2022/01/12 13:24:36;;;;;;;69.67;47.80;;;12.90;70.60;;;;;;5187637;28;20460;-30
2022/01/12 13:27:07;;;;;;;71.07;49.07;;;12.80;70.60;;;;;;5170396;28;20495;-29
2022/01/12 13:29:46;;;;;;;69.63;47.93;;;12.80;70.60;;;;;;5187655;28;20050;-30
2022/01/12 13:32:17;;;;;;;74.47;51.20;;;12.90;70.70;;;;;;5170707;28;20129;-30
2022/01/12 13:35:03;;;;;;;67.40;47.70;;;12.80;70.60;;;;;;5186938;28;20464;-31
2022/01/12 13:37:34;;;;;;;71.40;49.40;;;12.80;70.50;;;;;;5186552;28;20491;-30
2022/01/12 13:40:10;;;;;;;138.17;107.97;;;12.80;70.50;;;;;;5187380;28;20053;-30
2022/01/12 13:42:54;;;;;;;72.50;51.63;;;11.60;71.80;;;;;;5187970;28;20468;-30
2022/01/12 13:45:38;;;;;;;72.28;50.33;;;10.30;75.80;;;;;;5187590;28;20491;-28
2022/01/12 13:48:13;;;;;;;74.83;49.40;;;9.50;77.00;;;;;;5186775;28;20081;-28
2022/01/12 13:50:46;;;;;;;73.70;49.63;;;9.10;78.70;;;;;;5187425;28;20128;-29
2022/01/12 13:53:17;;;;;;;72.93;48.67;;;8.80;80.00;;;;;;5187525;28;20045;-30
2022/01/12 13:55:53;;;;;;;74.77;47.77;;;8.70;80.50;;;;;;5187453;28;20046;-28
2022/01/12 13:58:28;;;;;;;74.23;49.67;;;8.60;81.20;;;;;;5185994;28;20049;-29
2022/01/12 14:01:11;;;;;;;75.73;51.00;;;8.50;81.40;;;;;;5186004;28;20056;-28
2022/01/12 14:03:52;;;;;;;75.95;48.75;;;8.50;82.60;;;;;;5187458;28;20041;-27
2022/01/12 14:06:27;;;;;;;80.40;50.87;;;8.50;82.00;;;;;;5186004;28;20052;-29
2022/01/12 14:09:00;;;;;;;81.30;52.60;;;8.40;81.90;;;;;;5185892;28;20527;-28
2022/01/12 14:11:32;;;;;;;69.88;47.55;;;8.40;82.10;;;;;;5186277;28;20054;-28
2022/01/12 14:14:03;;;;;;;76.00;48.20;;;8.40;82.00;;;;;;5185017;28;20056;-28
2022/01/12 14:16:37;;;;;;;78.17;51.30;;;8.30;81.70;;;;;;5186452;28;20073;-28
2022/01/12 14:19:08;;;;;;;68.27;46.77;;;8.30;82.60;;;;;;5185800;28;20042;-28
2022/01/12 14:21:41;;;;;;;71.83;46.30;;;8.30;82.40;;;;;;5186878;28;20038;-29
2022/01/12 14:24:15;;;;;;;70.10;47.90;;;8.30;82.60;;;;;;5169686;28;20472;-29
2022/01/12 14:26:46;;;;;;;73.33;48.40;;;8.30;82.60;;;;;;5186159;28;20124;-30
2022/01/12 14:29:17;;;;;;;74.93;48.20;;;8.30;82.50;;;;;;5185946;28;20045;-30
2022/01/12 14:31:48;;;;;;;82.93;53.93;;;8.20;82.70;;;;;;5186609;28;20045;-30
2022/01/12 14:34:19;;;;;;;74.97;52.17;;;8.20;83.00;;;;;;5169474;28;20042;-30
2022/01/12 14:36:50;;;;;;;77.33;51.80;;;8.20;82.70;;;;;;5187099;28;20053;-27
2022/01/12 14:39:22;;;;;;;112.47;67.17;;;8.20;83.40;;;;;;5185682;28;20483;-28
2022/01/12 14:41:56;;;;;;;82.10;52.87;;;8.10;83.10;;;;;;5185837;28;20053;-29
2022/01/12 14:44:32;;;;;;;75.47;51.33;;;8.10;83.50;;;;;;5184126;28;20050;-28
2022/01/12 14:47:03;;;;;;;75.13;49.27;;;8.10;83.20;;;;;;5184784;28;20069;-30
2022/01/12 14:49:34;;;;;;;77.87;50.13;;;8.00;84.00;;;;;;5184398;28;20129;-29
2022/01/12 14:52:05;;;;;;;78.67;48.80;;;8.00;83.80;;;;;;5184382;28;20054;-30
2022/01/12 14:54:36;;;;;;;99.60;63.77;;;8.00;84.00;;;;;;5184498;28;20049;-29
2022/01/12 14:57:09;;;;;;;79.33;50.80;;;8.00;83.90;;;;;;5167946;28;20108;-28
2022/01/12 14:59:42;;;;;;;82.60;55.50;;;8.00;83.90;;;;;;5184212;28;20065;-30
2022/01/12 15:02:13;;;;;;;96.90;59.00;;;7.90;84.40;;;;;;5184419;28;20138;-30
2022/01/12 15:04:45;;;;;;;93.87;57.40;;;7.90;84.30;;;;;;5184260;28;20081;-28
2022/01/12 15:07:15;;;;;;;98.67;59.17;;;7.90;83.90;;;;;;5168103;28;20490;-28
2022/01/12 15:09:47;;;;;;;113.87;66.63;;;7.90;84.10;;;;;;5184127;28;20125;-28
2022/01/12 15:12:26;;;;;;;82.83;54.77;;;7.90;83.60;;;;;;5184270;28;20064;-30
2022/01/12 15:14:59;;;;;;;72.03;46.67;;;7.90;84.70;;;;;;5184179;28;20125;-29
2022/01/12 15:17:31;;;;;;;69.63;47.22;;;7.90;84.30;;;;;;5184274;28;20046;-29
2022/01/12 15:20:08;;;;;;;80.17;50.30;;;7.80;84.80;;;;;;5168033;28;20046;-30